createdAt,value
2018-07-15T00:00:21.712Z,101424.76
2018-07-15T00:02:50.026Z,101423.47
2018-07-15T00:05:18.352Z,101422.22
2018-07-15T00:07:46.671Z,101424.76
2018-07-15T00:10:15.010Z,101423.96
2018-07-15T00:12:43.334Z,101419.97
2018-07-15T00:15:11.646Z,101416.77
2018-07-15T00:17:39.960Z,101418.23
2018-07-15T00:20:08.305Z,101410.16
2018-07-15T00:22:36.653Z,101414.16
2018-07-15T00:25:04.977Z,101415.20
2018-07-15T00:27:33.297Z,101410.55
2018-07-15T00:30:01.614Z,101415.31
2018-07-15T00:32:29.931Z,101412.87
2018-07-15T00:34:58.237Z,101415.45
2018-07-15T00:37:26.565Z,101416.48
2018-07-15T00:39:54.901Z,101409.44
2018-07-15T00:42:23.218Z,101413.33
2018-07-15T00:44:51.536Z,101407.38
2018-07-15T00:47:19.862Z,101408.04
2018-07-15T00:49:48.169Z,101413.91
2018-07-15T00:52:16.492Z,101417.27
2018-07-15T00:54:44.828Z,101415.91
2018-07-15T00:57:13.155Z,101416.02
2018-07-15T00:59:41.466Z,101415.70
2018-07-15T01:02:09.779Z,101417.01
2018-07-15T01:04:38.123Z,101417.81
2018-07-15T01:07:06.445Z,101418.73
2018-07-15T01:09:34.790Z,101417.16
2018-07-15T01:12:03.136Z,101413.37
2018-07-15T01:14:31.472Z,101418.18
2018-07-15T01:16:59.780Z,101414.72
2018-07-15T01:19:28.120Z,101416.19
2018-07-15T01:21:56.420Z,101418.69
2018-07-15T01:24:24.727Z,101418.25
2018-07-15T01:26:53.038Z,101415.77
2018-07-15T01:29:21.363Z,101418.83
2018-07-15T01:31:49.689Z,101412.30
2018-07-15T01:34:18.077Z,101413.75
2018-07-15T01:36:46.404Z,101410.95
2018-07-15T01:39:14.729Z,101413.17
2018-07-15T01:41:43.227Z,101412.50
2018-07-15T01:44:11.545Z,101411.80
2018-07-15T01:46:39.929Z,101411.15
2018-07-15T01:49:08.354Z,101408.54
2018-07-15T01:51:36.679Z,101409.67
2018-07-15T01:54:05.055Z,101411.60
2018-07-15T01:56:33.383Z,101414.63
2018-07-15T01:59:01.807Z,101410.19
2018-07-15T02:01:30.141Z,101408.41
2018-07-15T02:03:58.458Z,101407.25
2018-07-15T02:06:26.867Z,101407.03
2018-07-15T02:08:55.208Z,101414.73
2018-07-15T02:11:23.541Z,101414.34
2018-07-15T02:13:51.919Z,101407.34
2018-07-15T02:16:20.245Z,101404.19
2018-07-15T02:18:48.559Z,101402.61
2018-07-15T02:21:16.938Z,101403.18
2018-07-15T02:23:45.281Z,101402.47
2018-07-15T02:26:13.621Z,101403.66
2018-07-15T02:28:41.927Z,101399.28
2018-07-15T02:31:10.243Z,101398.31
2018-07-15T02:33:39.584Z,101397.31
2018-07-15T02:36:07.929Z,101397.13
2018-07-15T02:38:36.574Z,101399.05
2018-07-15T02:41:04.907Z,101393.80
2018-07-15T02:43:33.224Z,101393.41
2018-07-15T02:46:01.552Z,101395.73
2018-07-15T02:48:29.893Z,101398.82
2018-07-15T02:50:58.206Z,101394.77
2018-07-15T02:53:26.536Z,101392.37
2018-07-15T02:55:54.878Z,101392.72
2018-07-15T02:58:23.315Z,101383.80
2018-07-15T03:00:51.667Z,101388.81
2018-07-15T03:03:20.031Z,101388.58
2018-07-15T03:05:48.343Z,101395.19
2018-07-15T03:08:16.658Z,101396.83
2018-07-15T03:10:45.000Z,101385.87
2018-07-15T03:13:13.312Z,101393.34
2018-07-15T03:15:41.652Z,101393.59
2018-07-15T03:18:09.982Z,101392.97
2018-07-15T03:20:38.309Z,101393.75
2018-07-15T03:23:06.782Z,101399.16
2018-07-15T03:25:35.101Z,101395.38
2018-07-15T03:28:03.410Z,101398.44
2018-07-15T03:30:31.729Z,101405.41
2018-07-15T03:33:00.069Z,101403.46
2018-07-15T03:35:28.374Z,101403.22
2018-07-15T03:37:56.692Z,101404.45
2018-07-15T03:40:25.043Z,101402.11
2018-07-15T03:42:53.353Z,101403.22
2018-07-15T03:45:21.652Z,101399.64
2018-07-15T03:47:49.988Z,101398.83
2018-07-15T03:50:18.338Z,101395.25
2018-07-15T03:52:46.664Z,101391.05
2018-07-15T03:55:15.027Z,101401.62
2018-07-15T03:57:43.366Z,101396.30
2018-07-15T04:00:11.713Z,101402.42
2018-07-15T04:02:40.033Z,101403.05
2018-07-15T04:05:08.357Z,101399.13
2018-07-15T04:07:36.708Z,101403.13
2018-07-15T04:10:05.331Z,101408.42
2018-07-15T04:12:33.666Z,101405.42
2018-07-15T04:15:01.980Z,101405.56
2018-07-15T04:17:30.325Z,101408.24
2018-07-15T04:19:58.692Z,101414.44
2018-07-15T04:22:27.020Z,101414.34
2018-07-15T04:24:55.380Z,101413.92
2018-07-15T04:27:23.675Z,101417.95
2018-07-15T04:29:51.993Z,101409.99
2018-07-15T04:32:20.335Z,101416.50
2018-07-15T04:34:48.660Z,101413.27
2018-07-15T04:37:17.008Z,101410.78
2018-07-15T04:39:45.352Z,101418.13
2018-07-15T04:42:13.697Z,101417.06
2018-07-15T04:44:42.024Z,101418.16
2018-07-15T04:47:10.351Z,101418.62
2018-07-15T04:49:38.665Z,101419.70
2018-07-15T04:52:07.011Z,101421.00
2018-07-15T04:54:35.370Z,101423.61
2018-07-15T04:57:03.716Z,101431.23
2018-07-15T04:59:32.058Z,101430.31
2018-07-15T05:02:00.457Z,101426.08
2018-07-15T05:04:28.767Z,101420.38
2018-07-15T05:06:57.107Z,101427.51
2018-07-15T05:09:25.446Z,101420.14
2018-07-15T05:11:53.757Z,101427.51
2018-07-15T05:14:22.117Z,101430.64
2018-07-15T05:16:50.441Z,101429.73
2018-07-15T05:19:18.760Z,101427.06
2018-07-15T05:21:47.084Z,101429.63
2018-07-15T05:24:15.463Z,101432.05
2018-07-15T05:26:43.799Z,101436.72
2018-07-15T05:29:12.148Z,101436.80
2018-07-15T05:31:40.482Z,101445.53
2018-07-15T05:34:08.809Z,101440.80
2018-07-15T05:36:37.139Z,101439.75
2018-07-15T05:39:05.940Z,101436.63
2018-07-15T05:41:34.279Z,101438.86
2018-07-15T05:44:02.617Z,101434.79
2018-07-15T05:46:30.977Z,101432.83
2018-07-15T05:48:59.312Z,101436.26
2018-07-15T05:51:27.644Z,101437.12
2018-07-15T05:53:55.986Z,101439.61
2018-07-15T05:56:24.295Z,101439.70
2018-07-15T05:58:52.606Z,101438.78
2018-07-15T06:01:20.948Z,101443.59
2018-07-15T06:03:49.284Z,101437.94
2018-07-15T06:06:17.617Z,101440.44
2018-07-15T06:08:45.936Z,101433.31
2018-07-15T06:11:14.248Z,101435.09
2018-07-15T06:13:42.651Z,101433.80
2018-07-15T06:16:11.024Z,101435.19
2018-07-15T06:18:39.354Z,101436.55
2018-07-15T06:21:07.687Z,101433.02
2018-07-15T06:23:36.017Z,101432.07
2018-07-15T06:26:04.362Z,101429.86
2018-07-15T06:28:32.753Z,101427.03
2018-07-15T06:31:01.113Z,101430.13
2018-07-15T06:33:29.463Z,101426.60
2018-07-15T06:35:57.802Z,101425.92
2018-07-15T06:38:26.147Z,101427.97
2018-07-15T06:40:54.464Z,101416.30
2018-07-15T06:43:22.808Z,101417.37
2018-07-15T06:45:51.120Z,101419.55
2018-07-15T06:48:19.566Z,101416.28
2018-07-15T06:50:47.868Z,101414.70
2018-07-15T06:53:16.481Z,101412.43
2018-07-15T06:55:44.838Z,101410.21
2018-07-15T06:58:13.169Z,101411.59
2018-07-15T07:00:41.688Z,101408.47
2018-07-15T07:03:10.083Z,101408.66
2018-07-15T07:05:38.448Z,101401.12
2018-07-15T07:08:06.807Z,101399.18
2018-07-15T07:10:35.162Z,101392.98
2018-07-15T07:13:03.499Z,101394.12
2018-07-15T07:15:31.843Z,101399.30
2018-07-15T07:18:00.177Z,101393.75
2018-07-15T07:20:28.567Z,101403.95
2018-07-15T07:22:56.915Z,101391.59
2018-07-15T07:25:25.280Z,101389.24
2018-07-15T07:27:53.648Z,101389.56
2018-07-15T07:30:22.053Z,101397.52
2018-07-15T07:32:50.394Z,101401.16
2018-07-15T07:35:18.789Z,101390.56
2018-07-15T07:37:47.152Z,101399.28
2018-07-15T07:40:15.535Z,101383.58
2018-07-15T07:42:43.906Z,101386.23
2018-07-15T07:45:12.253Z,101386.02
2018-07-15T07:47:40.597Z,101383.36
2018-07-15T07:50:08.938Z,101381.98
2018-07-15T07:52:37.252Z,101380.27
2018-07-15T07:55:05.828Z,101381.77
2018-07-15T07:57:34.165Z,101378.74
2018-07-15T08:00:02.502Z,101378.13
2018-07-15T08:02:30.924Z,101376.86
2018-07-15T08:04:59.240Z,101377.81
2018-07-15T08:07:27.596Z,101378.09
2018-07-15T08:09:55.913Z,101380.17
2018-07-15T08:12:24.224Z,101366.52
2018-07-15T08:14:52.579Z,101373.08
2018-07-15T08:17:20.941Z,101373.06
2018-07-15T08:19:49.509Z,101374.23
2018-07-15T08:22:17.837Z,101370.33
2018-07-15T08:24:46.150Z,101379.73
2018-07-15T08:27:14.481Z,101376.31
2018-07-15T08:29:54.304Z,101382.73
2018-07-15T08:32:22.636Z,101380.94
2018-07-15T08:34:51.000Z,101385.20
2018-07-15T08:37:19.333Z,101388.91
2018-07-15T08:39:47.693Z,101382.95
2018-07-15T08:42:16.036Z,101375.77
2018-07-15T08:44:44.378Z,101382.23
2018-07-15T08:47:12.726Z,101381.09
2018-07-15T08:49:41.034Z,101379.98
2018-07-15T08:52:09.428Z,101386.08
2018-07-15T08:54:37.712Z,101380.13
2018-07-15T08:57:06.033Z,101383.31
2018-07-15T08:59:34.358Z,101373.50
2018-07-15T09:02:02.697Z,101374.59
2018-07-15T09:04:31.022Z,101368.83
2018-07-15T09:06:59.344Z,101370.47
2018-07-15T09:09:27.658Z,101368.44
2018-07-15T09:11:56.001Z,101375.01
2018-07-15T09:14:24.351Z,101380.95
2018-07-15T09:16:52.981Z,101371.33
2018-07-15T09:19:21.328Z,101369.62
2018-07-15T09:21:49.649Z,101367.66
2018-07-15T09:24:18.006Z,101378.66
2018-07-15T09:26:46.345Z,101373.30
2018-07-15T09:29:14.707Z,101375.25
2018-07-15T09:31:43.035Z,101366.94
2018-07-15T09:34:11.349Z,101367.16
2018-07-15T09:36:39.673Z,101363.70
2018-07-15T09:39:08.273Z,101357.97
2018-07-15T09:41:36.621Z,101358.21
2018-07-15T09:44:04.932Z,101354.06
2018-07-15T09:46:33.260Z,101358.79
2018-07-15T09:49:01.581Z,101349.47
2018-07-15T09:51:29.896Z,101358.77
2018-07-15T09:53:58.278Z,101356.82
2018-07-15T09:56:26.587Z,101350.27
2018-07-15T09:58:54.926Z,101349.08
2018-07-15T10:01:23.247Z,101357.96
2018-07-15T10:03:51.580Z,101355.94
2018-07-15T10:06:19.893Z,101357.33
2018-07-15T10:08:48.212Z,101350.69
2018-07-15T10:11:16.596Z,101346.25
2018-07-15T10:13:44.925Z,101342.70
2018-07-15T10:16:13.251Z,101343.29
2018-07-15T10:18:41.651Z,101345.01
2018-07-15T10:21:10.009Z,101349.37
2018-07-15T10:23:38.337Z,101352.95
2018-07-15T10:26:06.680Z,101349.41
2018-07-15T10:28:35.008Z,101342.84
2018-07-15T10:31:03.403Z,101331.09
2018-07-15T10:33:31.715Z,101330.34
2018-07-15T10:36:00.069Z,101324.03
2018-07-15T10:38:28.388Z,101331.08
2018-07-15T10:40:56.724Z,101333.78
2018-07-15T10:43:25.074Z,101340.13
2018-07-15T10:45:53.410Z,101334.95
2018-07-15T10:48:21.867Z,101325.22
2018-07-15T10:50:50.300Z,101327.57
2018-07-15T10:53:18.613Z,101337.30
2018-07-15T10:55:46.944Z,101332.16
2018-07-15T10:58:15.355Z,101336.70
2018-07-15T11:00:43.682Z,101335.00
2018-07-15T11:03:12.040Z,101330.61
2018-07-15T11:05:40.384Z,101326.66
2018-07-15T11:08:08.719Z,101331.87
2018-07-15T11:10:37.044Z,101323.88
2018-07-15T11:13:05.489Z,101324.78
2018-07-15T11:15:33.828Z,101331.41
2018-07-15T11:18:02.148Z,101332.27
2018-07-15T11:20:30.493Z,101331.54
2018-07-15T11:22:58.850Z,101324.95
2018-07-15T11:25:27.203Z,101319.05
2018-07-15T11:27:55.552Z,101322.14
2018-07-15T11:30:23.908Z,101316.58
2018-07-15T11:32:52.248Z,101312.03
2018-07-15T11:35:20.611Z,101315.89
2018-07-15T11:37:48.959Z,101312.05
2018-07-15T11:40:17.271Z,101310.16
2018-07-15T11:42:46.414Z,101316.31
2018-07-15T11:45:14.760Z,101313.23
2018-07-15T11:47:43.099Z,101301.33
2018-07-15T11:50:11.433Z,101304.94
2018-07-15T11:52:39.844Z,101301.58
2018-07-15T11:55:08.221Z,101300.66
2018-07-15T11:57:36.904Z,101295.98
2018-07-15T12:00:05.762Z,101301.84
2018-07-15T12:02:34.088Z,101301.78
2018-07-15T12:05:02.435Z,101293.06
2018-07-15T12:07:30.805Z,101291.75
2018-07-15T12:09:59.152Z,101291.41
2018-07-15T12:12:27.489Z,101290.48
2018-07-15T12:14:55.852Z,101285.59
2018-07-15T12:17:24.201Z,101276.30
2018-07-15T12:19:52.537Z,101283.83
2018-07-15T12:22:20.873Z,101274.91
2018-07-15T12:24:49.230Z,101275.53
2018-07-15T12:27:17.576Z,101275.11
2018-07-15T12:29:45.910Z,101268.39
2018-07-15T12:32:14.233Z,101270.61
2018-07-15T12:34:42.579Z,101260.44
2018-07-15T12:37:10.913Z,101266.34
2018-07-15T12:39:39.264Z,101267.45
2018-07-15T12:42:07.852Z,101256.95
2018-07-15T12:44:36.173Z,101253.97
2018-07-15T12:47:04.530Z,101257.47
2018-07-15T12:49:32.855Z,101253.50
2018-07-15T12:52:01.262Z,101254.60
2018-07-15T12:54:29.543Z,101255.09
2018-07-15T12:56:57.882Z,101252.62
2018-07-15T12:59:26.224Z,101245.84
2018-07-15T13:01:54.562Z,101240.07
2018-07-15T13:04:22.892Z,101242.61
2018-07-15T13:06:51.231Z,101235.66
2018-07-15T13:09:19.580Z,101235.53
2018-07-15T13:11:47.913Z,101241.80
2018-07-15T13:14:16.281Z,101233.14
2018-07-15T13:16:44.629Z,101232.70
2018-07-15T13:19:12.959Z,101222.82
2018-07-15T13:21:41.298Z,101229.03
2018-07-15T13:24:09.635Z,101221.17
2018-07-15T13:26:37.953Z,101228.82
2018-07-15T13:29:06.309Z,101221.43
2018-07-15T13:31:34.652Z,101222.66
2018-07-15T13:34:02.988Z,101225.50
2018-07-15T13:36:31.328Z,101219.79
2018-07-15T13:38:59.692Z,101212.70
2018-07-15T13:41:28.079Z,101202.26
2018-07-15T13:43:56.394Z,101207.87
2018-07-15T13:46:24.757Z,101212.28
2018-07-15T13:48:53.094Z,101213.18
2018-07-15T13:51:21.415Z,101214.20
2018-07-15T13:53:49.760Z,101207.85
2018-07-15T13:56:18.096Z,101201.05
2018-07-15T13:58:46.475Z,101198.72
2018-07-15T14:01:14.826Z,101199.84
2018-07-15T14:03:43.151Z,101205.94
2018-07-15T14:06:11.467Z,101206.14
2018-07-15T14:08:39.910Z,101205.35
2018-07-15T14:11:08.269Z,101195.88
2018-07-15T14:13:36.619Z,101189.81
2018-07-15T14:16:04.997Z,101194.73
2018-07-15T14:18:33.370Z,101185.70
2018-07-15T14:21:01.780Z,101187.80
2018-07-15T14:23:30.132Z,101182.63
2018-07-15T14:25:58.495Z,101187.59
2018-07-15T14:28:26.837Z,101175.95
2018-07-15T14:30:55.188Z,101170.13
2018-07-15T14:33:23.536Z,101166.93
2018-07-15T14:35:51.867Z,101170.77
2018-07-15T14:38:20.207Z,101164.54
2018-07-15T14:40:48.564Z,101163.33
2018-07-15T14:43:16.899Z,101162.82
2018-07-15T14:45:47.109Z,101158.19
2018-07-15T14:48:15.465Z,101154.52
2018-07-15T14:50:44.308Z,101150.28
2018-07-15T14:53:12.635Z,101145.27
2018-07-15T14:55:41.083Z,101152.00
2018-07-15T14:58:10.834Z,101153.09
2018-07-15T15:00:39.204Z,101144.48
2018-07-15T15:03:07.753Z,101146.29
2018-07-15T15:05:36.120Z,101140.80
2018-07-15T15:08:04.512Z,101135.25
2018-07-15T15:10:32.948Z,101143.26
2018-07-15T15:13:01.940Z,101142.27
2018-07-15T15:15:30.542Z,101136.84
2018-07-15T15:17:58.916Z,101135.54
2018-07-15T15:20:27.271Z,101130.91
2018-07-15T15:22:55.690Z,101130.91
2018-07-15T15:25:24.071Z,101125.08
2018-07-15T15:27:52.428Z,101130.44
2018-07-15T15:30:20.766Z,101125.75
2018-07-15T15:32:49.124Z,101127.75
2018-07-15T15:35:17.473Z,101123.00
2018-07-15T15:37:45.917Z,101119.68
2018-07-15T15:40:14.289Z,101118.83
2018-07-15T15:42:42.618Z,101121.18
2018-07-15T15:45:10.988Z,101119.11
2018-07-15T15:47:39.398Z,101115.34
2018-07-15T15:50:07.782Z,101116.45
2018-07-15T15:52:36.101Z,101114.06
2018-07-15T15:55:04.548Z,101108.23
2018-07-15T15:57:33.260Z,101102.88
2018-07-15T16:00:01.611Z,101098.41
2018-07-15T16:02:29.990Z,101103.95
2018-07-15T16:04:58.329Z,101096.43
2018-07-15T16:07:26.669Z,101092.55
2018-07-15T16:09:55.013Z,101098.53
2018-07-15T16:12:23.321Z,101090.59
2018-07-15T16:14:51.656Z,101089.58
2018-07-15T16:17:19.980Z,101082.38
2018-07-15T16:19:48.308Z,101097.73
2018-07-15T16:22:16.660Z,101093.78
2018-07-15T16:24:45.016Z,101086.06
2018-07-15T16:27:13.394Z,101083.61
2018-07-15T16:29:41.709Z,101083.83
2018-07-15T16:32:10.052Z,101085.27
2018-07-15T16:34:38.373Z,101086.64
2018-07-15T16:37:06.705Z,101085.27
2018-07-15T16:39:35.061Z,101088.67
2018-07-15T16:42:03.392Z,101085.70
2018-07-15T16:44:31.724Z,101085.58
2018-07-15T16:47:00.062Z,101083.98
2018-07-15T16:49:28.413Z,101083.83
2018-07-15T16:51:56.748Z,101075.91
2018-07-15T16:54:25.774Z,101074.16
2018-07-15T16:56:54.104Z,101078.66
2018-07-15T16:59:22.425Z,101077.06
2018-07-15T17:01:50.736Z,101073.45
2018-07-15T17:04:19.055Z,101076.84
2018-07-15T17:06:47.400Z,101079.45
2018-07-15T17:09:15.840Z,101078.59
2018-07-15T17:11:44.157Z,101079.73
2018-07-15T17:14:12.547Z,101077.34
2018-07-15T17:16:40.848Z,101082.95
2018-07-15T17:19:09.197Z,101076.48
2018-07-15T17:21:37.544Z,101077.98
2018-07-15T17:24:05.916Z,101079.86
2018-07-15T17:26:34.267Z,101078.61
2018-07-15T17:29:02.613Z,101077.40
2018-07-15T17:31:30.948Z,101081.52
2018-07-15T17:33:59.261Z,101081.52
2018-07-15T17:36:27.563Z,101083.16
2018-07-15T17:38:55.893Z,101075.95
2018-07-15T17:41:24.228Z,101080.42
2018-07-15T17:43:52.593Z,101078.34
2018-07-15T17:46:20.989Z,101081.88
2018-07-15T17:48:49.277Z,101078.63
2018-07-15T17:51:17.744Z,101081.88
2018-07-15T17:53:46.080Z,101078.75
2018-07-15T17:56:14.435Z,101076.17
2018-07-15T17:58:42.825Z,101073.70
2018-07-15T18:01:11.188Z,101076.84
2018-07-15T18:03:39.535Z,101080.72
2018-07-15T18:06:07.888Z,101079.12
2018-07-15T18:08:36.232Z,101075.67
2018-07-15T18:11:04.576Z,101077.55
2018-07-15T18:13:32.976Z,101074.81
2018-07-15T18:16:01.330Z,101071.48
2018-07-15T18:18:29.652Z,101082.45
2018-07-15T18:20:58.018Z,101084.09
2018-07-15T18:23:26.357Z,101083.23
2018-07-15T18:25:54.722Z,101082.14
2018-07-15T18:28:23.073Z,101081.79
2018-07-15T18:30:51.429Z,101089.78
2018-07-15T18:33:19.816Z,101094.23
2018-07-15T18:35:48.157Z,101095.53
2018-07-15T18:38:16.504Z,101091.34
2018-07-15T18:40:44.821Z,101100.23
2018-07-15T18:43:13.148Z,101094.39
2018-07-15T18:45:41.500Z,101098.27
2018-07-15T18:48:09.827Z,101100.27
2018-07-15T18:50:38.155Z,101102.14
2018-07-15T18:53:06.535Z,101100.27
2018-07-15T18:55:35.015Z,101102.06
2018-07-15T18:58:03.367Z,101109.92
2018-07-15T19:00:32.009Z,101108.98
2018-07-15T19:03:00.354Z,101110.27
2018-07-15T19:05:28.781Z,101111.16
2018-07-15T19:07:57.122Z,101112.80
2018-07-15T19:10:25.574Z,101108.84
2018-07-15T19:12:53.981Z,101115.97
2018-07-15T19:15:22.380Z,101126.17
2018-07-15T19:17:50.734Z,101131.05
2018-07-15T19:20:19.080Z,101130.10
2018-07-15T19:22:47.424Z,101124.03
2018-07-15T19:25:15.769Z,101127.43
2018-07-15T19:27:44.118Z,101125.62
2018-07-15T19:30:12.462Z,101131.20
2018-07-15T19:32:40.918Z,101133.49
2018-07-15T19:35:09.252Z,101133.41
2018-07-15T19:37:37.603Z,101136.05
2018-07-15T19:40:06.100Z,101140.77
2018-07-15T19:42:34.588Z,101141.69
2018-07-15T19:45:02.854Z,101138.14
2018-07-15T19:47:31.210Z,101141.50
2018-07-15T19:49:59.588Z,101138.31
2018-07-15T19:52:27.962Z,101138.22
2018-07-15T19:54:56.250Z,101140.49
2018-07-15T19:57:24.593Z,101150.19
2018-07-15T19:59:52.894Z,101148.58
2018-07-15T20:02:21.269Z,101140.42
2018-07-15T20:04:49.599Z,101145.79
2018-07-15T20:07:17.963Z,101140.33
2018-07-15T20:09:46.296Z,101144.47
2018-07-15T20:12:14.663Z,101142.90
2018-07-15T20:14:42.973Z,101140.42
2018-07-15T20:17:11.323Z,101143.41
2018-07-15T20:19:39.636Z,101145.17
2018-07-15T20:22:08.120Z,101144.45
2018-07-15T20:24:36.494Z,101143.98
2018-07-15T20:27:07.367Z,101146.75
2018-07-15T20:29:35.743Z,101148.22
2018-07-15T20:32:04.060Z,101147.39
2018-07-15T20:34:32.383Z,101151.73
2018-07-15T20:37:00.766Z,101145.02
2018-07-15T20:39:29.103Z,101143.28
2018-07-15T20:41:57.437Z,101140.33
2018-07-15T20:44:25.787Z,101141.33
2018-07-15T20:46:54.126Z,101141.83
2018-07-15T20:49:22.444Z,101131.06
2018-07-15T20:51:50.870Z,101136.16
2018-07-15T20:54:19.230Z,101140.36
2018-07-15T20:56:47.587Z,101145.59
2018-07-15T20:59:16.076Z,101143.13
2018-07-15T21:01:44.400Z,101138.91
2018-07-15T21:04:12.720Z,101134.08
2018-07-15T21:06:41.081Z,101134.30
2018-07-15T21:09:09.864Z,101139.35
2018-07-15T21:11:38.763Z,101135.51
2018-07-15T21:14:07.402Z,101140.97
2018-07-15T21:16:36.108Z,101139.34
2018-07-15T21:19:05.177Z,101141.58
2018-07-15T21:21:33.525Z,101140.95
2018-07-15T21:24:01.843Z,101137.36
2018-07-15T21:26:30.287Z,101147.01
2018-07-15T21:28:58.685Z,101145.28
2018-07-15T21:31:27.004Z,101140.66
2018-07-15T21:33:55.344Z,101141.02
2018-07-15T21:36:23.653Z,101154.02
2018-07-15T21:38:52.343Z,101154.02
2018-07-15T21:41:20.878Z,101158.97
2018-07-15T21:43:49.816Z,101152.75
2018-07-15T21:46:18.768Z,101157.23
2018-07-15T21:48:47.942Z,101159.56
2018-07-15T21:51:16.315Z,101159.20
2018-07-15T21:53:44.658Z,101164.65
2018-07-15T21:56:12.992Z,101164.41
2018-07-15T21:58:41.341Z,101166.73
2018-07-15T22:01:09.700Z,101166.14
2018-07-15T22:03:38.027Z,101169.09
2018-07-15T22:06:11.576Z,101169.96
2018-07-15T22:08:52.226Z,101170.69
2018-07-15T22:11:21.223Z,101169.45
2018-07-15T22:13:50.108Z,101172.91
2018-07-15T22:16:19.045Z,101165.37
2018-07-15T22:18:47.946Z,101170.68
2018-07-15T22:21:16.940Z,101168.19
2018-07-15T22:23:45.885Z,101171.91
2018-07-15T22:26:14.793Z,101175.36
2018-07-15T22:28:43.715Z,101171.04
2018-07-15T22:31:12.700Z,101178.58
2018-07-15T22:33:41.629Z,101183.16
2018-07-15T22:36:10.577Z,101175.63
2018-07-15T22:38:39.468Z,101173.95
2018-07-15T22:41:08.264Z,101174.27
2018-07-15T22:43:37.352Z,101172.50
2018-07-15T22:46:06.438Z,101178.22
2018-07-15T22:48:35.527Z,101178.72
2018-07-15T22:51:04.576Z,101178.72
2018-07-15T22:53:33.557Z,101176.48
2018-07-15T22:56:02.529Z,101182.63
2018-07-15T22:58:31.430Z,101182.03
2018-07-15T23:01:00.360Z,101188.84
2018-07-15T23:03:29.281Z,101191.20
2018-07-15T23:06:09.330Z,101181.66
2018-07-15T23:08:38.261Z,101175.45
2018-07-15T23:11:07.218Z,101180.30
2018-07-15T23:13:36.124Z,101182.63
2018-07-15T23:16:05.021Z,101177.77
2018-07-15T23:18:33.999Z,101173.31
2018-07-15T23:21:02.725Z,101169.45
2018-07-15T23:23:31.268Z,101168.36
2018-07-15T23:25:59.571Z,101167.09
2018-07-15T23:28:27.893Z,101174.04
2018-07-15T23:30:56.221Z,101168.36
2018-07-15T23:33:24.546Z,101169.31
2018-07-15T23:35:52.884Z,101166.59
2018-07-15T23:38:21.182Z,101174.62
2018-07-15T23:40:49.510Z,101173.88
2018-07-15T23:43:17.815Z,101181.91
2018-07-15T23:45:46.147Z,101180.91
2018-07-15T23:48:14.473Z,101183.86
2018-07-15T23:50:42.821Z,101183.94
2018-07-15T23:53:11.139Z,101184.93
2018-07-15T23:55:39.443Z,101182.43
2018-07-15T23:58:07.776Z,101183.42
